createdAt,value
2022-07-30T00:02:04.180Z,18.54
2022-07-30T00:04:32.839Z,18.49
2022-07-30T00:07:01.218Z,18.48
2022-07-30T00:09:30.255Z,18.11
2022-07-30T00:12:01.964Z,18.25
2022-07-30T00:14:30.048Z,18.37
2022-07-30T00:16:58.138Z,18.31
2022-07-30T00:19:26.112Z,18.26
2022-07-30T00:21:55.021Z,17.99
2022-07-30T00:24:23.451Z,18.21
2022-07-30T00:26:51.282Z,18.16
2022-07-30T00:29:18.603Z,18.18
2022-07-30T00:31:46.004Z,18.19
2022-07-30T00:34:13.686Z,18.29
2022-07-30T00:36:41.343Z,18.29
2022-07-30T00:39:08.847Z,18.26
2022-07-30T00:41:53.764Z,18.21
2022-07-30T00:44:21.039Z,18.10
2022-07-30T00:46:48.627Z,18.04
2022-07-30T00:49:15.942Z,17.91
2022-07-30T00:51:43.281Z,18.01
2022-07-30T00:54:10.969Z,18.03
2022-07-30T00:56:38.817Z,18.05
2022-07-30T00:59:06.065Z,17.79
2022-07-30T01:01:34.065Z,17.71
2022-07-30T01:04:01.649Z,17.72
2022-07-30T01:06:29.154Z,17.70
2022-07-30T01:08:56.761Z,17.92
2022-07-30T01:11:32.077Z,17.85
2022-07-30T01:14:00.027Z,17.85
2022-07-30T01:16:28.068Z,17.81
2022-07-30T01:19:16.121Z,17.83
2022-07-30T01:21:50.175Z,17.85
2022-07-30T01:24:20.299Z,17.89
2022-07-30T01:26:49.645Z,17.95
2022-07-30T01:29:17.838Z,17.91
2022-07-30T01:31:47.093Z,17.70
2022-07-30T01:34:16.441Z,17.73
2022-07-30T01:36:45.967Z,17.77
2022-07-30T01:39:15.224Z,17.72
2022-07-30T01:41:44.198Z,17.51
2022-07-30T01:44:12.723Z,17.44
2022-07-30T01:46:41.308Z,17.44
2022-07-30T01:49:11.227Z,17.39
2022-07-30T01:51:39.365Z,17.39
2022-07-30T01:54:10.227Z,17.38
2022-07-30T01:56:38.579Z,17.28
2022-07-30T01:59:09.145Z,17.22
2022-07-30T02:01:36.626Z,17.26
2022-07-30T02:04:04.885Z,17.24
2022-07-30T02:06:38.574Z,17.18
2022-07-30T02:09:10.843Z,17.03
2022-07-30T02:12:03.918Z,17.02
2022-07-30T02:14:41.636Z,17.17
2022-07-30T02:17:18.859Z,17.13
2022-07-30T02:19:52.779Z,17.27
2022-07-30T02:22:23.375Z,17.05
2022-07-30T02:24:52.295Z,17.02
2022-07-30T02:27:30.691Z,16.94
2022-07-30T02:30:01.714Z,17.09
2022-07-30T02:32:34.012Z,17.10
2022-07-30T02:35:10.491Z,17.10
2022-07-30T02:37:42.942Z,17.18
2022-07-30T02:40:18.291Z,17.22
2022-07-30T02:42:49.985Z,17.07
2022-07-30T02:45:21.541Z,17.00
2022-07-30T02:47:57.720Z,16.82
2022-07-30T02:50:27.637Z,16.83
2022-07-30T02:52:57.468Z,16.79
2022-07-30T02:55:28.832Z,16.86
2022-07-30T02:57:57.803Z,16.90
2022-07-30T03:00:27.452Z,16.86
2022-07-30T03:02:57.277Z,16.92
2022-07-30T03:05:28.812Z,17.02
2022-07-30T03:07:59.925Z,16.98
2022-07-30T03:10:28.796Z,16.89
2022-07-30T03:12:58.644Z,16.66
2022-07-30T03:15:27.862Z,16.77
2022-07-30T03:17:58.899Z,16.67
2022-07-30T03:20:32.070Z,16.54
2022-07-30T03:23:02.625Z,16.67
2022-07-30T03:25:32.151Z,16.72
2022-07-30T03:28:04.149Z,16.77
2022-07-30T03:30:33.773Z,16.62
2022-07-30T03:33:11.103Z,16.74
2022-07-30T03:35:53.230Z,16.56
2022-07-30T03:38:23.820Z,16.67
2022-07-30T03:40:52.110Z,16.62
2022-07-30T03:43:33.521Z,16.57
2022-07-30T03:46:04.385Z,16.55
2022-07-30T03:48:34.579Z,16.65
2022-07-30T03:51:07.843Z,16.66
2022-07-30T03:53:35.950Z,16.55
2022-07-30T03:56:09.460Z,16.49
2022-07-30T03:58:40.042Z,16.64
2022-07-30T04:01:08.443Z,16.56
2022-07-30T04:03:36.477Z,16.70
2022-07-30T04:06:04.318Z,16.85
2022-07-30T04:08:31.806Z,16.81
2022-07-30T04:10:59.558Z,16.83
2022-07-30T04:13:28.235Z,16.96
2022-07-30T04:16:39.756Z,16.64
2022-07-30T04:19:09.729Z,16.84
2022-07-30T04:21:40.825Z,17.06
2022-07-30T04:24:11.503Z,17.01
2022-07-30T04:26:40.324Z,17.10
2022-07-30T04:29:16.602Z,17.07
2022-07-30T04:31:47.448Z,17.11
2022-07-30T04:34:15.503Z,17.31
2022-07-30T04:36:43.865Z,17.32
2022-07-30T04:39:12.001Z,17.36
2022-07-30T04:41:48.402Z,17.41
2022-07-30T04:44:20.623Z,17.48
2022-07-30T04:46:49.128Z,17.60
2022-07-30T04:49:19.262Z,17.62
2022-07-30T04:51:47.776Z,17.71
2022-07-30T04:54:16.650Z,17.50
2022-07-30T04:56:50.252Z,17.58
2022-07-30T04:59:25.333Z,17.82
2022-07-30T05:01:56.359Z,17.87
2022-07-30T05:04:25.354Z,17.95
2022-07-30T05:06:54.520Z,18.12
2022-07-30T05:09:22.846Z,18.30
2022-07-30T05:11:53.284Z,18.49
2022-07-30T05:14:22.129Z,18.35
2022-07-30T05:16:49.818Z,18.41
2022-07-30T05:19:18.990Z,18.61
2022-07-30T05:21:46.783Z,18.53
2022-07-30T05:24:14.859Z,18.81
2022-07-30T05:26:43.476Z,19.11
2022-07-30T05:29:19.370Z,19.10
2022-07-30T05:31:48.916Z,19.20
2022-07-30T05:34:16.922Z,19.26
2022-07-30T05:36:45.422Z,19.48
2022-07-30T05:39:13.150Z,19.46
2022-07-30T05:41:41.519Z,19.71
2022-07-30T05:44:09.398Z,19.66
2022-07-30T05:46:38.129Z,19.95
2022-07-30T05:49:06.736Z,20.30
2022-07-30T05:51:34.208Z,20.40
2022-07-30T05:54:02.135Z,20.44
2022-07-30T05:56:31.193Z,20.68
2022-07-30T05:58:59.576Z,20.86
2022-07-30T06:01:29.567Z,21.06
2022-07-30T06:03:59.663Z,21.18
2022-07-30T06:06:28.362Z,21.31
2022-07-30T06:08:56.429Z,21.57
2022-07-30T06:11:24.282Z,21.75
2022-07-30T06:13:52.902Z,22.04
2022-07-30T06:16:20.271Z,22.26
2022-07-30T06:18:48.124Z,22.29
2022-07-30T06:21:16.259Z,22.42
2022-07-30T06:23:44.262Z,22.50
2022-07-30T06:26:13.972Z,22.71
2022-07-30T06:28:41.535Z,22.76
2022-07-30T06:31:09.597Z,22.96
2022-07-30T06:33:37.843Z,23.05
2022-07-30T06:36:05.515Z,23.13
2022-07-30T06:38:33.753Z,23.34
2022-07-30T06:41:04.656Z,23.36
2022-07-30T06:43:32.976Z,23.39
2022-07-30T06:46:01.031Z,23.55
2022-07-30T06:48:31.603Z,23.69
2022-07-30T06:50:59.438Z,23.71
2022-07-30T06:53:27.163Z,23.97
2022-07-30T06:56:00.185Z,24.14
2022-07-30T06:58:29.832Z,24.13
2022-07-30T07:00:58.497Z,24.35
2022-07-30T07:03:40.021Z,24.55
2022-07-30T07:06:08.923Z,24.70
2022-07-30T07:08:38.568Z,24.70
2022-07-30T07:11:06.435Z,24.74
2022-07-30T07:13:34.268Z,24.83
2022-07-30T07:16:02.933Z,24.90
2022-07-30T07:18:30.627Z,24.98
2022-07-30T07:20:58.809Z,25.01
2022-07-30T07:23:26.424Z,25.05
2022-07-30T07:26:14.195Z,25.22
2022-07-30T07:28:41.841Z,25.31
2022-07-30T07:31:10.272Z,25.08
2022-07-30T07:33:40.689Z,24.86
2022-07-30T07:36:08.110Z,24.84
2022-07-30T07:38:36.880Z,24.73
2022-07-30T07:41:05.824Z,24.69
2022-07-30T07:43:34.236Z,24.62
2022-07-30T07:46:02.801Z,24.98
2022-07-30T07:48:31.108Z,24.94
2022-07-30T07:51:00.494Z,24.83
2022-07-30T07:53:31.468Z,24.90
2022-07-30T07:55:59.853Z,25.10
2022-07-30T07:58:27.694Z,25.31
2022-07-30T08:00:57.284Z,25.43
2022-07-30T08:03:26.572Z,25.34
2022-07-30T08:06:04.756Z,25.63
2022-07-30T08:08:39.888Z,25.97
2022-07-30T08:11:09.322Z,26.22
2022-07-30T08:13:48.771Z,26.17
2022-07-30T08:16:30.406Z,26.27
2022-07-30T08:19:00.592Z,26.15
2022-07-30T08:21:29.012Z,26.06
2022-07-30T08:23:56.769Z,26.02
2022-07-30T08:26:24.607Z,26.30
2022-07-30T08:28:54.416Z,26.40
2022-07-30T08:31:22.272Z,26.59
2022-07-30T08:33:50.008Z,26.86
2022-07-30T08:36:17.509Z,27.03
2022-07-30T08:38:45.182Z,27.04
2022-07-30T08:41:13.413Z,27.23
2022-07-30T08:43:41.722Z,27.26
2022-07-30T08:46:10.602Z,27.41
2022-07-30T08:48:41.312Z,27.49
2022-07-30T08:51:09.406Z,27.30
2022-07-30T08:53:39.487Z,27.47
2022-07-30T08:56:08.457Z,27.41
2022-07-30T08:58:36.572Z,27.56
2022-07-30T09:01:05.814Z,27.91
2022-07-30T09:03:34.458Z,28.12
2022-07-30T09:06:03.014Z,27.95
2022-07-30T09:08:31.891Z,28.02
2022-07-30T09:10:59.950Z,27.89
2022-07-30T09:13:28.790Z,28.28
2022-07-30T09:15:57.980Z,28.57
2022-07-30T09:18:33.842Z,28.92
2022-07-30T09:21:14.765Z,28.87
2022-07-30T09:24:02.614Z,28.74
2022-07-30T09:26:59.967Z,28.99
2022-07-30T09:29:34.917Z,29.28
2022-07-30T09:32:17.058Z,29.17
2022-07-30T09:34:51.192Z,29.29
2022-07-30T09:37:20.404Z,29.41
2022-07-30T09:39:59.480Z,29.25
2022-07-30T09:42:29.240Z,29.56
2022-07-30T09:45:07.609Z,29.82
2022-07-30T09:47:36.351Z,29.72
2022-07-30T09:50:13.134Z,29.75
2022-07-30T09:52:48.960Z,29.46
2022-07-30T09:55:31.173Z,29.64
2022-07-30T09:58:03.448Z,29.57
2022-07-30T10:00:35.331Z,29.60
2022-07-30T10:03:21.891Z,29.85
2022-07-30T10:06:07.803Z,30.09
2022-07-30T10:08:50.366Z,30.23
2022-07-30T10:11:23.539Z,29.83
2022-07-30T10:13:57.871Z,29.92
2022-07-30T10:16:27.617Z,29.86
2022-07-30T10:19:00.454Z,30.12
2022-07-30T10:21:32.415Z,30.01
2022-07-30T10:24:04.409Z,30.17
2022-07-30T10:26:37.455Z,30.24
2022-07-30T10:29:07.606Z,29.85
2022-07-30T10:31:49.363Z,29.99
2022-07-30T10:34:19.416Z,30.12
2022-07-30T10:36:56.124Z,30.40
2022-07-30T10:39:35.751Z,30.67
2022-07-30T10:42:42.307Z,30.82
2022-07-30T10:45:20.345Z,30.86
2022-07-30T10:47:49.518Z,30.74
2022-07-30T10:50:22.512Z,30.65
2022-07-30T10:53:04.167Z,30.62
2022-07-30T10:55:39.000Z,30.98
2022-07-30T10:58:12.491Z,30.93
2022-07-30T11:00:54.699Z,30.75
2022-07-30T11:03:41.236Z,30.93
2022-07-30T11:06:24.289Z,30.98
2022-07-30T11:08:52.090Z,31.31
2022-07-30T11:11:59.287Z,31.32
2022-07-30T11:14:13.313Z,31.59
2022-07-30T11:16:42.173Z,31.11
2022-07-30T11:19:55.639Z,31.15
2022-07-30T11:22:23.389Z,31.37
2022-07-30T11:24:50.860Z,31.19
2022-07-30T11:27:42.040Z,31.41
2022-07-30T11:30:17.308Z,31.43
2022-07-30T11:32:53.474Z,31.77
2022-07-30T11:35:25.633Z,31.44
2022-07-30T11:38:18.825Z,31.20
2022-07-30T11:40:46.752Z,31.44
2022-07-30T11:43:34.715Z,31.73
2022-07-30T11:46:28.978Z,31.73
2022-07-30T11:49:05.784Z,32.11
2022-07-30T11:51:46.996Z,32.25
2022-07-30T11:54:15.457Z,31.80
2022-07-30T11:56:54.249Z,31.54
2022-07-30T11:59:21.995Z,31.93
2022-07-30T12:01:51.184Z,32.15
2022-07-30T12:04:19.385Z,32.10
2022-07-30T12:06:48.560Z,31.92
2022-07-30T12:09:24.151Z,31.90
2022-07-30T12:11:59.018Z,32.42
2022-07-30T12:14:38.979Z,32.35
2022-07-30T12:17:06.760Z,31.92
2022-07-30T12:19:49.213Z,31.88
2022-07-30T12:22:16.973Z,31.89
2022-07-30T12:24:44.404Z,31.70
2022-07-30T12:27:11.832Z,32.09
2022-07-30T12:29:39.797Z,32.04
2022-07-30T12:32:07.241Z,31.78
2022-07-30T12:34:34.694Z,31.65
2022-07-30T12:37:10.470Z,31.72
2022-07-30T12:39:38.068Z,31.50
2022-07-30T12:42:18.984Z,31.09
2022-07-30T12:44:46.480Z,30.82
2022-07-30T12:47:25.257Z,30.91
2022-07-30T12:49:54.472Z,30.86
2022-07-30T12:52:36.050Z,30.54
2022-07-30T12:55:13.066Z,30.90
2022-07-30T12:58:08.746Z,31.17
2022-07-30T13:00:51.289Z,31.39
2022-07-30T13:03:27.804Z,31.44
2022-07-30T13:05:56.789Z,31.79
2022-07-30T13:08:46.874Z,31.68
2022-07-30T13:11:14.612Z,32.05
2022-07-30T13:13:42.317Z,32.01
2022-07-30T13:16:10.904Z,32.08
2022-07-30T13:18:38.245Z,31.99
2022-07-30T13:21:09.705Z,32.15
2022-07-30T13:23:41.658Z,32.31
2022-07-30T13:26:10.428Z,31.91
2022-07-30T13:28:38.188Z,32.39
2022-07-30T13:31:07.079Z,32.48
2022-07-30T13:33:38.831Z,32.24
2022-07-30T13:36:07.683Z,31.97
2022-07-30T13:38:35.617Z,32.38
2022-07-30T13:41:04.736Z,32.71
2022-07-30T13:43:33.897Z,32.68
2022-07-30T13:46:03.798Z,32.40
2022-07-30T13:48:32.709Z,31.65
2022-07-30T13:51:04.392Z,31.52
2022-07-30T13:53:32.244Z,31.30
2022-07-30T13:55:59.848Z,31.30
2022-07-30T13:58:27.954Z,31.58
2022-07-30T14:00:55.876Z,31.85
2022-07-30T14:03:23.567Z,31.82
2022-07-30T14:05:51.126Z,31.82
2022-07-30T14:08:18.566Z,31.67
2022-07-30T14:10:46.332Z,31.76
2022-07-30T14:13:21.100Z,31.44
2022-07-30T14:15:49.075Z,30.95
2022-07-30T14:18:16.966Z,30.92
2022-07-30T14:20:48.428Z,31.01
2022-07-30T14:23:17.232Z,31.49
2022-07-30T14:25:44.991Z,31.56
2022-07-30T14:28:12.917Z,31.95
2022-07-30T14:30:40.738Z,31.71
2022-07-30T14:33:08.471Z,32.11
2022-07-30T14:35:36.106Z,32.45
2022-07-30T14:38:03.949Z,32.45
2022-07-30T14:40:31.537Z,32.55
2022-07-30T14:42:58.948Z,32.21
2022-07-30T14:45:26.991Z,32.57
2022-07-30T14:47:56.555Z,32.45
2022-07-30T14:50:24.087Z,32.84
2022-07-30T14:52:52.220Z,32.87
2022-07-30T14:55:19.694Z,32.85
2022-07-30T14:57:47.512Z,33.04
2022-07-30T15:00:15.661Z,33.21
2022-07-30T15:02:43.016Z,33.62
2022-07-30T15:05:10.510Z,33.61
2022-07-30T15:07:38.235Z,33.82
2022-07-30T15:10:07.488Z,33.67
2022-07-30T15:12:35.064Z,33.74
2022-07-30T15:15:07.704Z,32.99
2022-07-30T15:17:38.910Z,33.57
2022-07-30T15:20:09.295Z,33.99
2022-07-30T15:22:37.041Z,34.18
2022-07-30T15:25:05.577Z,34.61
2022-07-30T15:27:34.451Z,34.69
2022-07-30T15:30:02.778Z,35.48
2022-07-30T15:32:30.267Z,35.56
2022-07-30T15:34:58.990Z,34.86
2022-07-30T15:37:26.690Z,34.53
2022-07-30T15:39:54.049Z,34.16
2022-07-30T15:42:21.838Z,34.62
2022-07-30T15:45:14.296Z,34.54
2022-07-30T15:47:37.622Z,33.52
2022-07-30T15:50:05.867Z,32.39
2022-07-30T15:52:34.675Z,32.60
2022-07-30T15:55:04.457Z,32.42
2022-07-30T15:57:31.948Z,31.96
2022-07-30T15:59:59.453Z,32.87
2022-07-30T16:02:27.153Z,33.16
2022-07-30T16:04:54.846Z,33.14
2022-07-30T16:07:22.404Z,32.50
2022-07-30T16:09:49.797Z,33.10
2022-07-30T16:12:17.478Z,33.82
2022-07-30T16:14:45.021Z,35.02
2022-07-30T16:17:14.178Z,35.24
2022-07-30T16:19:45.054Z,35.98
2022-07-30T16:22:14.955Z,36.02
2022-07-30T16:24:49.944Z,36.17
2022-07-30T16:27:17.629Z,36.50
2022-07-30T16:29:44.989Z,36.58
2022-07-30T16:32:12.538Z,36.91
2022-07-30T16:34:40.132Z,37.07
2022-07-30T16:37:07.452Z,36.96
2022-07-30T16:39:35.108Z,36.03
2022-07-30T16:42:03.373Z,34.90
2022-07-30T16:44:32.397Z,33.88
2022-07-30T16:47:00.424Z,32.93
2022-07-30T16:49:27.983Z,32.39
2022-07-30T16:51:55.376Z,32.15
2022-07-30T16:54:23.425Z,31.69
2022-07-30T16:56:52.945Z,31.23
2022-07-30T16:59:20.907Z,30.89
2022-07-30T17:01:48.644Z,30.62
2022-07-30T17:04:16.263Z,30.66
2022-07-30T17:06:44.577Z,30.47
2022-07-30T17:09:15.712Z,30.15
2022-07-30T17:11:46.996Z,29.65
2022-07-30T17:14:22.363Z,29.34
2022-07-30T17:16:50.765Z,29.17
2022-07-30T17:19:20.023Z,28.96
2022-07-30T17:21:47.410Z,28.79
2022-07-30T17:24:15.001Z,28.74
2022-07-30T17:26:43.724Z,28.67
2022-07-30T17:29:14.094Z,28.69
2022-07-30T17:31:45.893Z,28.58
2022-07-30T17:34:15.607Z,28.19
2022-07-30T17:36:51.785Z,28.04
2022-07-30T17:40:19.622Z,27.65
2022-07-30T17:42:11.576Z,27.77
2022-07-30T17:44:42.262Z,27.67
2022-07-30T17:47:14.451Z,27.42
2022-07-30T17:49:42.986Z,27.34
2022-07-30T17:52:10.412Z,27.22
2022-07-30T17:54:37.890Z,27.11
2022-07-30T17:57:06.385Z,26.98
2022-07-30T17:59:33.805Z,27.19
2022-07-30T18:02:01.491Z,26.93
2022-07-30T18:04:29.499Z,26.12
2022-07-30T18:06:56.933Z,25.80
2022-07-30T18:09:24.458Z,25.64
2022-07-30T18:11:52.285Z,25.65
2022-07-30T18:14:19.801Z,25.63
2022-07-30T18:16:47.357Z,25.51
2022-07-30T18:19:26.789Z,25.32
2022-07-30T18:21:54.897Z,25.46
2022-07-30T18:24:24.868Z,25.43
2022-07-30T18:26:52.730Z,25.24
2022-07-30T18:29:21.064Z,25.17
2022-07-30T18:31:48.908Z,25.02
2022-07-30T18:34:16.267Z,24.90
2022-07-30T18:36:43.645Z,25.01
2022-07-30T18:39:11.355Z,25.10
2022-07-30T18:41:38.912Z,25.32
2022-07-30T18:44:06.245Z,25.41
2022-07-30T18:46:34.218Z,25.19
2022-07-30T18:49:15.372Z,24.90
2022-07-30T18:51:49.671Z,24.62
2022-07-30T18:54:18.219Z,24.17
2022-07-30T18:56:45.806Z,24.08
2022-07-30T18:59:13.820Z,23.72
2022-07-30T19:01:41.649Z,23.28
2022-07-30T19:04:11.091Z,23.10
2022-07-30T19:06:38.881Z,22.43
2022-07-30T19:09:09.122Z,21.86
2022-07-30T19:11:45.432Z,21.57
2022-07-30T19:14:14.457Z,21.29
2022-07-30T19:16:43.161Z,21.16
2022-07-30T19:19:15.058Z,21.03
2022-07-30T19:21:42.789Z,21.04
2022-07-30T19:24:11.213Z,21.18
2022-07-30T19:26:41.131Z,21.07
2022-07-30T19:29:10.742Z,20.86
2022-07-30T19:40:49.879Z,21.06
2022-07-30T19:43:17.734Z,21.06
2022-07-30T19:45:51.751Z,20.69
2022-07-30T19:48:29.455Z,20.50
2022-07-30T19:50:59.042Z,20.45
2022-07-30T19:53:28.035Z,20.35
2022-07-30T19:56:03.287Z,20.10
2022-07-30T19:58:31.990Z,20.01
2022-07-30T20:01:00.404Z,19.83
2022-07-30T20:03:31.723Z,20.01
2022-07-30T20:06:00.673Z,19.75
2022-07-30T20:08:28.745Z,19.62
2022-07-30T20:10:57.849Z,19.63
2022-07-30T20:13:45.507Z,19.67
2022-07-30T20:16:16.231Z,19.75
2022-07-30T20:18:46.163Z,20.03
2022-07-30T20:21:16.225Z,19.89
2022-07-30T20:23:45.376Z,20.21
2022-07-30T20:26:15.196Z,20.14
2022-07-30T20:28:45.686Z,20.27
2022-07-30T20:31:14.648Z,20.27
2022-07-30T20:33:43.026Z,20.31
2022-07-30T20:36:18.144Z,20.44
2022-07-30T20:38:47.309Z,20.46
2022-07-30T20:41:15.463Z,20.65
2022-07-30T20:43:52.254Z,20.26
2022-07-30T20:46:23.325Z,19.81
2022-07-30T20:48:54.063Z,19.78
2022-07-30T20:51:21.575Z,19.64
2022-07-30T20:54:02.724Z,19.75
2022-07-30T20:56:30.254Z,19.69
2022-07-30T20:58:57.599Z,19.54
2022-07-30T21:01:28.511Z,19.59
2022-07-30T21:03:58.318Z,19.41
2022-07-30T21:06:26.567Z,19.30
2022-07-30T21:08:56.639Z,19.24
2022-07-30T21:11:25.340Z,19.14
2022-07-30T21:13:54.946Z,18.78
2022-07-30T21:16:23.827Z,18.64
2022-07-30T21:18:51.598Z,18.74
2022-07-30T21:21:29.066Z,18.44
2022-07-30T21:24:11.544Z,18.50
2022-07-30T21:26:40.696Z,18.53
2022-07-30T21:29:09.473Z,18.39
2022-07-30T21:32:01.642Z,18.28
2022-07-30T21:34:26.442Z,18.30
2022-07-30T21:36:55.439Z,18.25
2022-07-30T21:39:28.942Z,18.36
2022-07-30T21:41:57.475Z,18.55
2022-07-30T21:44:25.251Z,18.70
2022-07-30T21:46:52.826Z,18.63
2022-07-30T21:49:22.455Z,18.88
2022-07-30T21:51:50.981Z,18.84
2022-07-30T21:54:28.625Z,18.96
2022-07-30T21:56:58.347Z,18.98
2022-07-30T21:59:27.512Z,19.05
2022-07-30T22:01:55.877Z,18.97
2022-07-30T22:04:24.740Z,19.09
2022-07-30T22:06:54.824Z,19.34
2022-07-30T22:09:33.202Z,19.61
2022-07-30T22:12:09.112Z,19.84
2022-07-30T22:14:40.215Z,19.63
2022-07-30T22:17:14.724Z,19.60
2022-07-30T22:19:53.932Z,19.74
2022-07-30T22:22:26.627Z,19.62
2022-07-30T22:27:56.211Z,19.08
2022-07-30T22:30:27.035Z,19.15
2022-07-30T22:32:55.634Z,19.25
2022-07-30T22:35:32.241Z,19.65
2022-07-30T22:38:02.230Z,19.60
2022-07-30T22:40:30.386Z,19.47
2022-07-30T22:42:58.062Z,19.60
2022-07-30T22:45:44.697Z,19.45
2022-07-30T22:48:14.308Z,19.36
2022-07-30T22:50:42.529Z,19.48
2022-07-30T22:53:23.492Z,19.61
2022-07-30T22:55:59.326Z,19.77
2022-07-30T22:58:28.900Z,19.58
2022-07-30T23:00:57.016Z,19.32
2022-07-30T23:03:24.757Z,19.48
2022-07-30T23:05:56.372Z,19.37
2022-07-30T23:08:30.021Z,19.28
2022-07-30T23:11:00.012Z,19.29
2022-07-30T23:12:28.740Z,19.39
2022-07-30T23:13:28.837Z,19.31
2022-07-30T23:15:56.222Z,19.31
2022-07-30T23:18:23.928Z,19.35
2022-07-30T23:20:51.751Z,19.31
2022-07-30T23:23:19.118Z,19.34
2022-07-30T23:25:46.426Z,19.54
2022-07-30T23:28:14.045Z,19.49
2022-07-30T23:30:41.401Z,19.65
2022-07-30T23:33:08.755Z,19.47
2022-07-30T23:35:37.406Z,19.42
2022-07-30T23:38:05.245Z,19.43
2022-07-30T23:40:32.577Z,19.36
2022-07-30T23:43:00.182Z,19.20
2022-07-30T23:45:27.442Z,18.87
2022-07-30T23:48:02.913Z,18.59
2022-07-30T23:50:32.474Z,18.77
2022-07-30T23:53:01.455Z,18.77
2022-07-30T23:55:30.768Z,18.81
2022-07-30T23:57:58.825Z,19.08
